Rimouski, Canada
Current Conditions -  °F | °C
As of 1:00 PM on Thursday 27 Nov 2014 (Local Time) from CYYY Reporting Station
Broken Clouds Broken Clouds  
Wind Chill: 12°   Ceiling: 3500
Heat Index: 25°   Visibility: 30mi
Dew Point: 12°   Wind: 16mph
Humidity: 59%   Direction: 350°N
Pressure: 29.94"   Gusts: NA
Location:  48.45°N, 68.52°W
Report Text: CYYY 271800Z 35014KT 30SM BKN035 BKN060 M04/M11 A2994 RMK SC6SC1 SLP142
Loading
Personal Weather Stations






























Interactive Weather Map New forecast layout! Learn more

10-Day Weather Forecast

Advertisements
Track Severe Weather on mobile